Verkhoyansk, Russia
Current Conditions -  °F | °C
As of 5:00 AM on Sunday 26 Oct 2014 (Local Time) from UEEE Reporting Station
Clear Clear  
Wind Chill: -14°   Ceiling: Unl
Heat Index: -4°   Visibility: 6mi
Dew Point: -8°   Wind: 4mph
Humidity: 85%   Direction: 220°SW
Pressure: 30.45"   Gusts: NA
Location:  67.54°N, 133.39°E
Report Text: UEEE 251900Z 22002MPS CAVOK M20/M22 Q1031 NOSIG RMK QFE76423490150
Loading
Personal Weather Stations






























Interactive Weather Map
Tropical Storm Tracking
New forecast layout! Learn more

10-Day Weather Forecast

Advertisements
Track Severe Weather on mobile